Alleene, Arkansas
Current Conditions -  °F | °C
As of 10:53 PM on Thursday 27 Nov 2014 (Local Time) from KDEQ Reporting Station
Clear Clear  
Wind Chill: 32°   Ceiling: Unl
Heat Index: 32°   Visibility: 8mi
Dew Point: 30°   Wind: 0mph
Humidity: 92%   Direction: NA
Pressure: 30.4"   Gusts: NA
Location:  33.77°N, 94.26°W
Report Text: KDEQ 280453Z AUTO 00000KT 8SM CLR 00/M01 A3040 RMK AO2 SLP295 T00001011
Loading
Personal Weather Stations






























Interactive Weather Map New forecast layout! Learn more

10-Day Weather Forecast

Advertisements
Track Severe Weather on mobile